• Join FlightAware (Why Join?)
  • Login
  • US Flag 
11:24AM EDT


 

Airport Tracker/Info


-or-


 

Live Flight TrackerFlight Track Log ✈ SWA3499 ✈ 02-May-2013 ✈ KMCO - KMHT

Flight Track Log - Related Links

Times and Time Zones

All times are in EDT time to prevent confusion due to time zone crossing. See the SWA3499 flight status page for this flight to view local times or setup timezone preferences in your user account.

Time Position Orientation Groundspeed Altitude Reporting Facility
EDT Latitude Longitude Course Direction KTS MPH feet Rate Location/Type
08:40PM 28.4000 -81.3000 180° South 157 181 1,000  Level Orlando TRACON
08:40PM 28.3833 -81.3000 180° South 156 180 1,600 2,220 Climbing Orlando TRACON
08:41PM 28.3667 -81.2500 111° Southeast 247 284 4,000 2,580 Climbing Orlando TRACON
08:42PM 28.3833 -81.1667 77° East 239 275 6,900 2,100 Climbing Orlando TRACON
08:43PM 28.4000 -81.1000 74° East 299 344 8,000 1,320 Climbing Orlando TRACON
08:45PM 28.5322 -81.1322 348° North 300 345 10,600 1,620 Climbing Jacksonville Center
08:46PM 28.6144 -81.1922 327° Northwest 322 371 12,600 2,340 Climbing Jacksonville Center
08:47PM 28.7111 -81.2428 335° Northwest 355 409 15,300 2,640 Climbing Jacksonville Center
08:48PM 28.8058 -81.2981 333° Northwest 372 428 17,900 2,400 Climbing Jacksonville Center
08:49PM 28.8964 -81.3747 323° Northwest 390 449 20,100 2,100 Climbing Jacksonville Center
08:50PM 28.9850 -81.4614 319° Northwest 405 466 22,200 1,800 Climbing Jacksonville Center
08:51PM 29.0922 -81.5167 336° Northwest 415 478 23,800 1,500 Climbing Jacksonville Center
08:52PM 29.2136 -81.5483 347° North 415 478 25,200 1,500 Climbing Jacksonville Center
08:53PM 29.3289 -81.6017 338° Northwest 436 502 26,900 1,500 Climbing Jacksonville Center
08:54PM 29.4464 -81.6572 338° Northwest 447 514 28,200 1,200 Climbing Jacksonville Center
08:55PM 29.5658 -81.7225 335° Northwest 462 532 29,300 1,080 Climbing Jacksonville Center
08:56PM 29.6917 -81.7736 341° North 467 537 30,400 1,140 Climbing Jacksonville Center
08:57PM 29.8253 -81.7722 North 467 537 31,600 1,020 Climbing Jacksonville Center
08:58PM 29.9544 -81.7442 11° North 459 528 32,500 960 Climbing Jacksonville Center
08:59PM 30.0856 -81.7092 13° North 468 539 33,600 1,140 Climbing Jacksonville Center
09:00PM 30.2189 -81.6761 12° North 476 548 34,800 660 Climbing Jacksonville Center
09:01PM 30.3522 -81.6433 12° North 481 554 35,000 60 Climbing Jacksonville Center
09:02PM 30.4856 -81.6125 11° North 487 560 35,000  Level Jacksonville Center
09:03PM 30.6208 -81.5794 12° North 487 560 35,000  Level Jacksonville Center
09:04PM 30.7542 -81.5461 12° North 487 560 35,000  Level Jacksonville Center
09:05PM 30.8897 -81.5153 11° North 487 560 35,000  Level Jacksonville Center
09:06PM 31.0250 -81.4744 15° North 487 560 35,000  Level Jacksonville Center
09:07PM 31.1472 -81.4044 26° Northeast 481 554 35,000  Level Jacksonville Center
09:08PM 31.2739 -81.3369 24° Northeast 486 559 35,000  Level Jacksonville Center
09:09PM 31.4064 -81.2617 26° Northeast 478 550 35,000  Level Jacksonville Center
09:10PM 31.5183 -81.1989 26° Northeast 478 550 35,000  Level Jacksonville Center
09:11PM 31.6531 -81.1256 25° Northeast 478 550 35,000  Level Jacksonville Center
09:12PM 31.7631 -81.0672 24° Northeast 478 550 35,000  Level Jacksonville Center
09:13PM 31.8956 -80.9911 26° Northeast 478 550 35,000  Level Jacksonville Center
09:14PM 32.0175 -80.9225 26° Northeast 484 557 35,000  Level Jacksonville Center
09:15PM 32.1294 -80.8614 25° Northeast 478 550 35,000  Level Jacksonville Center
09:16PM 32.2639 -80.7872 25° Northeast 485 558 35,000  Level Jacksonville Center
09:17PM 32.3756 -80.7256 25° Northeast 478 550 35,000  Level Jacksonville Center
09:18PM 32.4997 -80.6561 25° Northeast 483 556 35,000  Level Jacksonville Center
09:19PM 32.6236 -80.5864 25° Northeast 483 556 35,000  Level Jacksonville Center
09:20PM 32.7475 -80.5142 26° Northeast 483 556 35,000  Level Jacksonville Center
09:21PM 32.8694 -80.4464 25° Northeast 477 549 35,000  Level Jacksonville Center
09:22PM 32.9953 -80.3736 26° Northeast 484 557 35,000  Level Jacksonville Center
09:23PM 33.1172 -80.3083 24° Northeast 484 557 35,000  Level Jacksonville Center
09:24PM 33.2533 -80.2325 25° Northeast 479 551 35,000  Level Jacksonville Center
09:25PM 33.3686 -80.1617 27° Northeast 479 551 35,000  Level Jacksonville Center
09:26PM 33.4819 -80.0961 26° Northeast 468 539 35,000  Level Jacksonville Center
09:27PM 33.6014 -80.0275 26° Northeast 463 533 35,000  Level Jacksonville Center
09:28PM 33.7189 -79.9586 26° Northeast 463 533 35,000  Level Jacksonville Center
09:29PM 33.8342 -79.8922 26° Northeast 463 533 35,000  Level Jacksonville Center
09:30PM 33.9514 -79.8233 26° Northeast 463 533 35,000  Level Jacksonville Center
09:31PM 34.0708 -79.7539 26° Northeast 463 533 35,000  Level Jacksonville Center
09:32PM 34.1858 -79.6844 27° Northeast 463 533 35,000  Level Jacksonville Center
09:34PM 34.4000 -79.5686 24° Northeast 467 537 35,000  Level Washington Center
09:35PM 34.5186 -79.5089 23° Northeast 467 537 35,000  Level Washington Center
09:36PM 34.6378 -79.4439 24° Northeast 462 532 35,000  Level Washington Center
09:37PM 34.7586 -79.3814 23° Northeast 462 532 35,000  Level Washington Center
09:38PM 34.8794 -79.3186 23° Northeast 462 532 35,000  Level Washington Center
09:39PM 34.9983 -79.2558 23° Northeast 462 532 35,000  Level Washington Center
09:40PM 35.1150 -79.1875 26° Northeast 462 532 35,000  Level Washington Center
09:41PM 35.2222 -79.0981 34° Northeast 462 532 35,000  Level Washington Center
09:42PM 35.3269 -79.0086 35° Northeast 462 532 35,000  Level Washington Center
09:43PM 35.4339 -78.9186 34° Northeast 462 532 35,000  Level Washington Center
09:44PM 35.5406 -78.8314 34° Northeast 462 532 35,000  Level Washington Center
09:45PM 35.6514 -78.7411 33° Northeast 462 532 35,000  Level Washington Center
09:46PM 35.7581 -78.6481 35° Northeast 462 532 35,000  Level Washington Center
09:47PM 35.8522 -78.5647 36° Northeast 462 532 35,000  Level Washington Center
09:48PM 35.9586 -78.4736 35° Northeast 457 526 35,000  Level Washington Center
09:49PM 36.0631 -78.3825 35° Northeast 457 526 35,000  Level Washington Center
09:50PM 36.1717 -78.2911 34° Northeast 457 526 35,000  Level Washington Center
09:51PM 36.2758 -78.2019 35° Northeast 457 526 35,000  Level Washington Center
09:52PM 36.3778 -78.1125 35° Northeast 457 526 35,000  Level Washington Center
09:53PM 36.4883 -78.0153 35° Northeast 446 513 35,000  Level Washington Center
09:54PM 36.5922 -77.9281 34° Northeast 446 513 35,000  Level Washington Center
09:55PM 36.6878 -77.8453 35° Northeast 446 513 35,000  Level Washington Center
09:56PM 36.7917 -77.7575 34° Northeast 451 519 35,000  Level Washington Center
09:57PM 36.8933 -77.6669 35° Northeast 451 519 35,000  Level Washington Center
09:58PM 36.9972 -77.5761 35° Northeast 451 519 35,000  Level Washington Center
09:59PM 37.1028 -77.4850 35° Northeast 451 519 35,000  Level Washington Center
10:00PM 37.2067 -77.3939 35° Northeast 456 525 35,000  Level Washington Center
10:01PM 37.3100 -77.3047 34° Northeast 456 525 35,000  Level Washington Center
10:02PM 37.4114 -77.2181 34° Northeast 451 519 35,000  Level Washington Center
10:03PM 37.5275 -77.1158 35° Northeast 460 529 35,000  Level Washington Center
10:04PM 37.6267 -77.0233 36° Northeast 455 524 35,000  Level Washington Center
10:05PM 37.7300 -76.9308 35° Northeast 455 524 35,000  Level Washington Center
10:06PM 37.8289 -76.8406 36° Northeast 455 524 35,000  Level Washington Center
10:07PM 37.9300 -76.7500 35° Northeast 455 524 35,000  Level Washington Center
10:08PM 38.0286 -76.6619 35° Northeast 450 518 35,000  Level Washington Center
10:09PM 38.1297 -76.5683 36° Northeast 444 511 35,000  Level Washington Center
10:10PM 38.2303 -76.4800 35° Northeast 444 511 35,000  Level Washington Center
10:11PM 38.3186 -76.4014 35° Northeast 435 501 35,000  Level Washington Center
10:12PM 38.4214 -76.3044 36° Northeast 435 501 35,000  Level Washington Center
10:13PM 38.5197 -76.2125 36° Northeast 435 501 35,000  Level Washington Center
10:14PM 38.6267 -76.1231 33° Northeast 443 510 35,000  Level Washington Center
10:15PM 38.7269 -76.0281 36° Northeast 443 510 35,000  Level Washington Center
10:16PM 38.8272 -75.9381 35° Northeast 443 510 35,000  Level Washington Center
10:17PM 38.9256 -75.8450 36° Northeast 443 510 35,000  Level Washington Center
10:18PM 39.0217 -75.7519 37° Northeast 443 510 35,000  Level Washington Center
10:19PM 39.1217 -75.6611 35° Northeast 438 504 35,000  Level Washington Center
10:20PM 39.2197 -75.5675 36° Northeast 438 504 35,000  Level Washington Center
10:22PM 39.4317 -75.3700 36° Northeast 458 527 35,000  Level New York Center
10:23PM 39.5314 -75.2767 36° Northeast 446 513 35,000  Level New York Center
10:24PM 39.6264 -75.1858 36° Northeast 434 499 35,000  Level New York Center
10:25PM 39.7303 -75.0817 38° Northeast 428 493 35,000  Level New York Center
10:26PM 39.8189 -74.9981 36° Northeast 428 493 35,000  Level New York Center
10:27PM 39.9161 -74.9036 37° Northeast 428 493 35,000  Level New York Center
10:28PM 40.0078 -74.7817 46° Northeast 421 484 35,000  Level New York Center
10:29PM 40.0889 -74.6669 47° Northeast 426 490 35,000  Level New York Center
10:30PM 40.1989 -74.6161 19° North 421 484 35,000  Level New York Center
10:31PM 40.3108 -74.5733 16° North 404 465 35,000  Level New York Center
10:32PM 40.4244 -74.5386 13° North 404 465 35,000  Level New York Center
10:33PM 40.5422 -74.5014 14° North 415 478 35,000  Level New York Center
10:34PM 40.7214 -74.4475 13° North 414 476 35,000  Level Boston Center
10:35PM 40.8347 -74.4097 14° North 414 476 35,000  Level Boston Center
10:36PM 40.9372 -74.3853 10° North 414 476 35,000  Level Boston Center
10:37PM 41.0525 -74.3503 13° North 414 476 35,000  Level Boston Center
10:38PM 41.1656 -74.3150 13° North 414 476 35,000  Level Boston Center
10:39PM 41.2767 -74.2742 15° North 414 476 35,000  Level Boston Center
10:40PM 41.3897 -74.2414 12° North 414 476 35,000  Level Boston Center
10:41PM 41.5031 -74.2058 13° North 414 476 35,000 -480 Level Boston Center
10:42PM 41.6181 -74.1700 13° North 414 476 34,100 -960 Descending Boston Center
10:43PM 41.7269 -74.1369 13° North 409 471 33,100 -1,080 Descending Boston Center
10:44PM 41.8400 -74.1036 12° North 390 449 32,000 -1,080 Descending Boston Center
10:45PM 41.9469 -74.0675 14° North 385 443 31,000 -1,020 Descending Boston Center
10:46PM 42.0494 -74.0336 14° North 380 437 30,000 -1,020 Descending Boston Center
10:47PM 42.1542 -74.0028 12° North 380 437 29,000 -1,080 Descending Boston Center
10:48PM 42.2547 -73.9689 14° North 375 432 27,900 -1,080 Descending Boston Center
10:49PM 42.3531 -73.9375 13° North 370 426 26,900 -1,020 Descending Boston Center
10:50PM 42.4492 -73.9061 14° North 365 420 25,900 -1,020 Descending Boston Center
10:51PM 42.5414 -73.8744 14° North 348 400 24,900 -900 Descending Boston Center
10:52PM 42.5964 -73.8022 44° Northeast 329 379 24,100 -1,020 Descending Boston Center
10:53PM 42.6169 -73.6447 80° East 307 353 22,900 -1,140 Descending Boston Center
10:54PM 42.6350 -73.5125 79° East 319 367 21,900 -1,020 Descending Boston Center
10:55PM 42.6508 -73.3828 81° East 339 390 20,900 -900 Descending Boston Center
10:56PM 42.6642 -73.2758 80° East 339 390 20,100 -960 Descending Boston Center
10:57PM 42.6775 -73.1406 82° East 334 384 19,000 -600 Descending Boston Center
10:58PM 42.6928 -73.0164 80° East 329 379 19,000  Level Boston Center
10:59PM 42.7100 -72.9036 78° East 334 384 19,000 -300 Level Boston Center
11:00PM 42.7250 -72.7764 81° East 334 384 18,500 -600 Descending Boston Center
11:01PM 42.7400 -72.6492 81° East 334 384 17,800 -840 Descending Boston Center
11:02PM 42.7547 -72.5278 81° East 334 384 16,900 -1,320 Descending Boston Center
11:03PM 42.7672 -72.4089 82° East 334 384 15,200 -1,980 Descending Boston Center
11:04PM 42.7817 -72.2761 82° East 329 379 13,000 -1,920 Descending Boston Center
11:05PM 42.7961 -72.1600 80° East 324 373 11,400 -1,440 Descending Boston Center
11:06PM 42.8083 -72.0467 82° East 312 359 10,200 -1,080 Descending Boston Center
11:07PM 42.8203 -71.9447 81° East 288 331 9,300 -900 Descending Boston Center
11:08PM 42.8178 -71.8456 92° East 267 307 8,400 -1,140 Descending Boston Center
11:09PM 42.8025 -71.7525 103° East 254 292 7,100 -1,200 Descending Boston Center
11:10PM 42.7856 -71.6792 107° East 224 258 6,100 -1,200 Descending Boston Center
11:11PM 42.7933 -71.6139 81° East 175 201 4,800 -1,500 Descending Boston Center
11:12PM 42.8306 -71.5708 40° Northeast 148 170 3,100 -1,320 Descending Boston Center
11:13PM 42.8617 -71.5336 41° Northeast 153 176 2,200 -960 Descending Boston Center
11:14PM 42.8925 -71.4936 44° Northeast 153 176 1,200 -900 Descending Boston Center
11:15PM 42.9214 -71.4592 41° Northeast 147 169 500 8,880 Descending Boston Center
11:16PM 42.9522 -71.4217 42° Northeast 147 169 19,000 9,240 Climbing Boston Center
11:17PM 42.9833 -71.3872 39° Northeast 147 169 19,000  Level Boston Center
11:18PM 43.0142 -71.3497 42° Northeast 147 169 19,000  Level Boston Center
11:19PM 43.0450 -71.3150 39° Northeast 147 169 19,000  Level Boston Center
11:20PM 43.0575 -71.3006 40° Northeast 147 169 19,000  Level Boston Center
11:21PM 43.0575 -71.3006 90° East 147 169 19,000  Level Boston Center
11:23PM 42.9593 -71.3933 215° Southwest  Level FlightAware Approximate
11:30PM 42.9328 -71.4358 216° Southwest  Level Estimated
11:31PM 42.9328 -71.4358 216° Southwest  Level Estimated
11:32PM 42.9328 -71.4358 216° Southwest  Level Estimated
11:33PM 42.9328 -71.4358 216° Southwest  Level Estimated
11:34PM 42.9328 -71.4358 216° Southwest  Level Estimated